Time;durP1;ratioP1;P1;durP2;ratioP2;P2;SDS_P1;SDS_P2;PMS_P1;PMS_P2;Temp;Humidity;BMP_temperature;BMP_pressure;BME280_temperature;BME280_humidity;BME280_pressure;Samples;Min_cycle;Max_cycle;Signal;HPM_P1;HPM_P2
2020/12/13 00:04:52;;;;;;;44.23;23.12;;;;;;;4.08;72.39;98250.44;251853;1131;114462;-68
2020/12/13 00:09:58;;;;;;;39.73;21.20;;;;;;;4.03;71.97;98248.02;251963;1132;114682;-69
2020/12/13 00:15:01;;;;;;;36.13;18.40;;;;;;;3.99;71.73;98264.89;252065;1132;114620;-69
2020/12/13 00:20:05;;;;;;;31.55;17.77;;;;;;;3.96;71.50;98259.77;251875;1132;114614;-68
2020/12/13 00:25:08;;;;;;;33.85;17.90;;;;;;;3.90;71.38;98261.84;252123;1132;114533;-70
2020/12/13 00:30:10;;;;;;;39.80;19.83;;;;;;;3.90;71.56;98273.21;251927;1132;114683;-75
2020/12/13 00:35:14;;;;;;;36.50;18.73;;;;;;;3.94;71.96;98282.70;251826;1135;114725;-67
2020/12/13 00:40:16;;;;;;;35.13;18.90;;;;;;;3.96;72.47;98279.98;251941;1132;114837;-67
2020/12/13 00:45:21;;;;;;;33.28;18.75;;;;;;;4.00;72.19;98292.91;252161;1134;116212;-68
2020/12/13 00:50:25;;;;;;;39.55;19.67;;;;;;;4.00;71.48;98294.69;252078;1132;114734;-67
2020/12/13 00:55:29;;;;;;;34.85;18.20;;;;;;;3.98;72.47;98310.58;251995;1132;114657;-68
2020/12/13 01:00:32;;;;;;;35.33;19.67;;;;;;;3.97;71.98;98311.51;251837;1134;114641;-67
2020/12/13 01:05:40;;;;;;;36.53;18.37;;;;;;;3.96;72.39;98311.56;251973;1132;114629;-68
2020/12/13 01:11:02;;;;;;;35.87;18.90;;;;;;;3.92;71.35;98307.38;252112;1132;114843;-70
2020/12/13 01:16:12;;;;;;;33.87;19.83;;;;;;;3.90;71.90;98307.43;252035;1134;115505;-69
2020/12/13 01:22:00;;;;;;;44.08;21.40;;;;;;;3.90;72.28;98306.58;251299;1134;114610;-70
2020/12/13 01:27:41;;;;;;;37.65;19.37;;;;;;;3.92;72.33;98313.48;251427;1134;115054;-70
2020/12/13 01:39:25;;;;;;;33.67;17.30;;;;;;;3.98;72.46;98310.58;251793;1132;115130;-68
2020/12/13 01:44:30;;;;;;;32.20;16.57;;;;;;;4.00;72.00;98316.60;252202;1134;114500;-67
2020/12/13 01:49:42;;;;;;;34.50;18.50;;;;;;;3.98;72.00;98321.11;251986;1133;115359;-69
2020/12/13 01:55:07;;;;;;;34.08;17.95;;;;;;;3.93;72.02;98307.29;251994;1132;114500;-68
2020/12/13 02:00:14;;;;;;;32.50;17.10;;;;;;;3.91;72.03;98305.68;252084;1132;114449;-69
2020/12/13 02:05:23;;;;;;;32.17;17.50;;;;;;;3.89;71.62;98311.00;252106;1131;114423;-68
2020/12/13 02:10:27;;;;;;;34.77;18.37;;;;;;;3.92;71.99;98312.64;251953;1133;114676;-67
2020/12/13 02:15:34;;;;;;;35.57;19.60;;;;;;;3.95;71.49;98313.34;252097;1133;116045;-68
2020/12/13 02:20:39;;;;;;;33.78;18.32;;;;;;;3.99;71.56;98314.05;251896;1132;115756;-68
2020/12/13 02:26:11;;;;;;;33.13;17.07;;;;;;;3.99;71.41;98320.17;252018;1132;115035;-68
2020/12/13 02:31:17;;;;;;;28.60;15.20;;;;;;;3.95;72.01;98326.52;251980;1132;114571;-67
2020/12/13 02:37:16;;;;;;;30.10;16.17;;;;;;;3.84;71.51;98327.91;251922;1133;114867;-68
2020/12/13 02:42:39;;;;;;;32.45;17.45;;;;;;;3.79;72.16;98331.62;251675;1132;114788;-67
2020/12/13 02:47:42;;;;;;;31.52;17.30;;;;;;;3.80;71.86;98327.20;251971;1134;114385;-68
2020/12/13 02:52:44;;;;;;;32.17;17.80;;;;;;;3.78;72.17;98326.44;251856;1134;114660;-69
2020/12/13 02:57:49;;;;;;;;;;;;;;;3.73;71.64;98331.05;252015;1132;114730;-68
2020/12/13 03:02:51;;;;;;;35.87;18.20;;;;;;;3.75;71.35;98339.73;252061;1133;104953;-67
2020/12/13 03:08:06;;;;;;;33.70;18.07;;;;;;;3.77;71.39;98337.87;251989;1132;115072;-75
2020/12/13 03:13:15;;;;;;;32.75;17.25;;;;;;;3.79;71.65;98343.92;251971;1133;115009;-76
2020/12/13 03:18:30;;;;;;;31.62;16.52;;;;;;;3.78;71.71;98348.34;249320;1132;115084;-69
2020/12/13 03:24:15;;;;;;;;;;;;;;;;;;;;;
2020/12/13 03:29:53;;;;;;;27.53;14.57;;;;;;;3.76;71.81;98358.07;252130;1132;114750;-71
2020/12/13 03:35:20;;;;;;;30.57;16.90;;;;;;;3.77;72.33;98375.59;251388;1134;114852;-77
2020/12/13 03:40:46;;;;;;;31.75;16.60;;;;;;;3.75;71.69;98372.16;251599;1135;114848;-72
2020/12/13 03:45:52;;;;;;;33.77;16.53;;;;;;;3.77;71.37;98366.81;251692;1135;114751;-72
2020/12/13 03:51:33;;;;;;;31.47;16.87;;;;;;;3.80;71.61;98379.84;250874;1134;115754;-68
2020/12/13 03:56:42;;;;;;;28.57;14.93;;;;;;;3.88;72.31;98387.41;251571;1134;115460;-66
2020/12/13 04:01:44;;;;;;;32.40;16.67;;;;;;;3.90;71.70;98381.12;251406;1135;114966;-66
2020/12/13 04:06:47;;;;;;;29.85;16.25;;;;;;;3.89;71.43;98382.06;251578;1134;114688;-66
2020/12/13 04:11:49;;;;;;;27.20;14.70;;;;;;;3.86;71.49;98395.36;251757;1133;114959;-64
2020/12/13 04:16:51;;;;;;;28.90;15.45;;;;;;;3.82;71.42;98395.58;252026;1134;114950;-65
2020/12/13 04:21:53;;;;;;;28.27;14.70;;;;;;;3.76;71.02;98394.06;252005;1132;114276;-64
2020/12/13 04:26:57;;;;;;;28.80;15.67;;;;;;;3.71;71.36;98396.06;252012;1132;114772;-64
2020/12/13 04:31:59;;;;;;;26.07;14.63;;;;;;;3.73;72.08;98400.31;251929;1133;114723;-63
2020/12/13 04:37:02;;;;;;;28.23;14.60;;;;;;;3.78;72.05;98405.39;252183;1132;114866;-64
2020/12/13 04:42:12;;;;;;;26.62;14.23;;;;;;;3.80;71.53;98406.16;251987;1132;115031;-69
2020/12/13 04:47:56;;;;;;;22.53;12.80;;;;;;;3.80;71.96;98398.26;252125;1132;116133;-68
2020/12/13 04:53:22;;;;;;;23.20;12.97;;;;;;;3.79;71.79;98393.92;252009;1132;114846;-71
2020/12/13 04:58:53;;;;;;;23.45;12.82;;;;;;;3.77;71.90;98403.66;251785;1132;114946;-71
2020/12/13 05:04:25;;;;;;;26.17;13.03;;;;;;;3.74;72.06;98415.20;252155;1132;114754;-70
2020/12/13 05:09:53;;;;;;;25.03;14.83;;;;;;;3.70;72.18;98413.63;252068;1132;114697;-69
2020/12/13 05:15:04;;;;;;;31.00;17.03;;;;;;;3.70;71.57;98418.89;251942;1132;114807;-71
2020/12/13 05:20:13;;;;;;;31.12;17.70;;;;;;;3.72;71.26;98424.08;252042;1132;114685;-70
2020/12/13 05:25:41;;;;;;;25.37;13.30;;;;;;;3.76;71.91;98430.91;251201;1135;115018;-68
2020/12/13 05:31:12;;;;;;;25.77;14.53;;;;;;;3.78;71.30;98434.34;250859;1135;115886;-67
2020/12/13 05:36:27;;;;;;;24.70;13.27;;;;;;;3.77;71.39;98437.87;251585;1135;114929;-71
2020/12/13 05:41:38;;;;;;;23.70;13.53;;;;;;;3.73;71.87;98449.45;251527;1135;114899;-66
2020/12/13 05:52:30;;;;;;;22.45;13.30;;;;;;;3.64;71.09;98453.36;251758;1134;114556;-68
2020/12/13 05:57:43;;;;;;;24.60;14.43;;;;;;;3.64;71.87;98461.25;251584;1135;114884;-67
2020/12/13 06:03:16;;;;;;;28.33;16.50;;;;;;;3.60;71.84;98464.95;251777;1132;114679;-67
2020/12/13 06:09:05;;;;;;;23.63;14.70;;;;;;;3.64;71.22;98463.89;252121;1132;114741;-67
2020/12/13 06:14:24;;;;;;;25.53;14.73;;;;;;;3.70;72.18;98468.01;252113;1134;114937;-66
2020/12/13 06:19:30;;;;;;;23.20;13.18;;;;;;;3.75;71.70;98466.05;252107;1132;114630;-65
2020/12/13 06:24:32;;;;;;;27.30;12.93;;;;;;;3.75;72.03;98473.94;251962;1132;115011;-66
2020/12/13 06:29:41;;;;;;;21.60;12.15;;;;;;;3.74;71.44;98474.88;252116;1132;115102;-67
2020/12/13 06:34:57;;;;;;;20.83;12.23;;;;;;;3.71;72.02;98477.63;251928;1134;115112;-66
2020/12/13 06:40:29;;;;;;;18.62;11.50;;;;;;;3.67;71.81;98486.55;252135;1132;114537;-66
2020/12/13 06:46:40;;;;;;;;;;;;;;;;;;;;;
2020/12/13 06:51:53;;;;;;;23.50;14.53;;;;;;;3.60;71.60;98493.89;252157;1132;115892;-69
2020/12/13 06:57:48;;;;;;;22.32;13.78;;;;;;;3.64;71.52;98502.50;252077;1132;114847;-71
2020/12/13 07:03:25;;;;;;;22.63;13.20;;;;;;;3.67;71.89;98504.97;252107;1132;114846;-67
2020/12/13 07:08:29;;;;;;;20.95;11.83;;;;;;;3.69;71.55;98514.52;252007;1133;114690;-67
2020/12/13 07:13:45;;;;;;;19.73;11.75;;;;;;;3.66;71.30;98524.32;252208;1132;114717;-71
2020/12/13 07:19:06;;;;;;;20.60;11.63;;;;;;;3.64;71.67;98527.03;252154;1132;114744;-69
2020/12/13 07:24:42;;;;;;;17.92;10.35;;;;;;;3.62;71.48;98530.64;252249;1132;114724;-66
2020/12/13 07:30:00;;;;;;;14.33;9.53;;;;;;;3.56;71.51;98532.59;252238;1132;114948;-66
2020/12/13 07:35:14;;;;;;;14.70;9.17;;;;;;;3.51;70.54;98531.95;252202;1132;114611;-67
2020/12/13 07:40:16;;;;;;;15.98;10.13;;;;;;;3.52;70.79;98544.17;252113;1132;114547;-66
2020/12/13 07:45:19;;;;;;;17.30;10.60;;;;;;;3.55;70.90;98548.45;252064;1132;114829;-66
2020/12/13 07:50:21;;;;;;;21.95;12.33;;;;;;;3.61;71.05;98548.20;252099;1134;115092;-66
2020/12/13 07:55:24;;;;;;;19.30;11.37;;;;;;;3.63;70.87;98550.76;251874;1132;114692;-67
2020/12/13 08:00:27;;;;;;;19.03;11.80;;;;;;;3.62;71.33;98560.43;251889;1132;114742;-67
2020/12/13 08:05:30;;;;;;;24.43;14.43;;;;;;;3.64;71.36;98560.38;252134;1132;115805;-65
2020/12/13 08:10:36;;;;;;;29.57;15.57;;;;;;;3.66;71.57;98558.52;252025;1133;115658;-67
2020/12/13 08:15:38;;;;;;;18.62;12.58;;;;;;;3.65;71.18;98560.31;252060;1132;115588;-67
2020/12/13 08:20:47;;;;;;;23.73;13.10;;;;;;;3.64;71.49;98557.75;252117;1134;115387;-66
2020/12/13 08:25:50;;;;;;;26.57;16.23;;;;;;;3.59;71.50;98559.70;251983;1133;114709;-67
2020/12/13 08:30:53;;;;;;;27.67;15.03;;;;;;;3.58;71.04;98565.89;251926;1132;114967;-67
2020/12/13 08:35:57;;;;;;;25.60;14.83;;;;;;;3.64;71.02;98573.54;251955;1134;114741;-67
2020/12/13 08:41:00;;;;;;;19.42;12.80;;;;;;;3.65;71.58;98576.09;251966;1132;114515;-68
2020/12/13 08:46:25;;;;;;;22.87;13.87;;;;;;;3.67;70.86;98578.64;251924;1132;115019;-68
2020/12/13 08:51:41;;;;;;;25.08;14.35;;;;;;;3.67;71.11;98590.05;252193;1132;115250;-71
2020/12/13 08:57:06;;;;;;;25.48;14.80;;;;;;;3.67;71.03;98595.31;251926;1132;114674;-74
2020/12/13 09:03:28;;;;;;;22.67;13.53;;;;;;;3.65;70.69;98604.19;250945;1132;115136;-68
2020/12/13 09:08:30;;;;;;;19.97;12.70;;;;;;;3.63;71.20;98596.34;252112;1132;114687;-70
2020/12/13 09:13:58;;;;;;;;;;;;;;;;;;;;;
2020/12/13 09:19:34;;;;;;;;;;;;;;;;;;;;;
2020/12/13 09:24:53;;;;;;;24.70;14.83;;;;;;;3.62;70.91;98605.16;252010;1132;115096;-71
2020/12/13 09:30:13;;;;;;;25.83;15.57;;;;;;;3.64;71.05;98605.97;251979;1132;115442;-72
2020/12/13 09:35:32;;;;;;;27.20;16.37;;;;;;;3.68;71.10;98599.66;251989;1133;114899;-68
2020/12/13 09:40:38;;;;;;;20.37;13.90;;;;;;;3.70;71.56;98600.45;252114;1132;114950;-67
2020/12/13 09:45:43;;;;;;;22.82;13.00;;;;;;;3.68;71.36;98588.27;252092;1132;116500;-66
2020/12/13 09:50:45;;;;;;;21.62;13.13;;;;;;;3.66;70.64;98592.73;251992;1131;114631;-66
2020/12/13 09:55:47;;;;;;;20.67;12.77;;;;;;;3.63;70.85;98595.48;252012;1135;115867;-67
2020/12/13 10:00:51;;;;;;;22.33;12.40;;;;;;;3.57;70.74;98593.98;251955;1133;114818;-64
2020/12/13 10:11:14;;;;;;;23.80;14.10;;;;;;;3.60;70.85;98611.39;252020;1132;115018;-70
2020/12/13 10:16:19;;;;;;;23.55;13.58;;;;;;;3.62;70.54;98605.16;251917;1132;115288;-69
2020/12/13 10:21:33;;;;;;;26.07;13.83;;;;;;;3.62;70.81;98609.57;252066;1132;114829;-69
2020/12/13 10:26:41;;;;;;;20.63;12.70;;;;;;;3.64;70.57;98605.11;251989;1133;116020;-69
2020/12/13 10:31:54;;;;;;;21.63;13.53;;;;;;;3.63;70.56;98606.01;251898;1132;115017;-69
2020/12/13 10:37:13;;;;;;;20.97;13.30;;;;;;;3.60;70.97;98607.02;251785;1132;115355;-70
2020/12/13 10:42:36;;;;;;;21.90;13.53;;;;;;;3.56;70.54;98602.77;252005;1132;114567;-71
2020/12/13 10:48:04;;;;;;;24.10;14.83;;;;;;;3.52;71.04;98609.08;251936;1133;114922;-72
2020/12/13 10:53:29;;;;;;;29.00;16.37;;;;;;;3.51;70.96;98612.64;252085;1133;114812;-71
2020/12/13 11:00:05;;;;;;;;;;;;;;;;;;;;;
2020/12/13 11:05:53;;;;;;;27.87;16.30;;;;;;;3.58;70.42;98611.47;251531;1134;114983;-74
2020/12/13 11:11:21;;;;;;;;;;;;;;;;;;;;;
2020/12/13 11:16:30;;;;;;;25.90;15.47;;;;;;;3.62;70.50;98617.46;251110;1134;114746;-68
2020/12/13 11:22:15;;;;;;;;;;;;;;;;;;;;;
2020/12/13 11:27:52;;;;;;;23.80;14.60;;;;;;;3.54;71.03;98623.89;251893;1133;115178;-65
2020/12/13 11:33:04;;;;;;;22.80;13.47;;;;;;;3.50;70.83;98616.20;251809;1132;114798;-65
2020/12/13 11:38:22;;;;;;;22.17;13.95;;;;;;;3.49;70.90;98627.61;251918;1132;114707;-70
2020/12/13 11:44:06;;;;;;;25.65;14.80;;;;;;;3.52;70.78;98630.98;252043;1132;114799;-70
2020/12/13 11:49:19;;;;;;;24.77;14.58;;;;;;;3.53;70.36;98629.20;252098;1134;114946;-70
2020/12/13 11:54:26;;;;;;;24.27;15.90;;;;;;;3.56;70.44;98634.34;252028;1132;114710;-70
2020/12/13 11:59:32;;;;;;;25.67;15.37;;;;;;;3.55;70.39;98640.53;251844;1132;114665;-69
2020/12/13 12:04:38;;;;;;;28.92;16.48;;;;;;;3.52;70.55;98638.88;251647;1135;115027;-70
2020/12/13 12:09:41;;;;;;;26.27;15.68;;;;;;;3.49;70.98;98643.40;252002;1131;115416;-69
2020/12/13 12:14:43;;;;;;;25.52;15.70;;;;;;;3.48;70.60;98642.55;251961;1132;114643;-70
2020/12/13 12:19:46;;;;;;;27.47;15.50;;;;;;;3.45;70.89;98645.30;252023;1132;114801;-69
2020/12/13 12:25:02;;;;;;;26.40;15.83;;;;;;;3.44;70.90;98648.85;252027;1131;114851;-70
2020/12/13 12:30:06;;;;;;;29.65;16.42;;;;;;;3.48;70.99;98653.06;252071;1132;115646;-70
2020/12/13 12:35:08;;;;;;;25.33;16.23;;;;;;;3.51;70.32;98652.95;251897;1131;115022;-70
2020/12/13 12:40:14;;;;;;;25.82;16.05;;;;;;;3.56;70.49;98656.23;252179;1132;114908;-70
2020/12/13 12:45:25;;;;;;;25.30;15.70;;;;;;;3.55;70.77;98649.27;251985;1132;115614;-70
2020/12/13 12:50:36;;;;;;;23.80;14.77;;;;;;;3.54;70.62;98660.72;251992;1132;114931;-70
2020/12/13 12:55:39;;;;;;;26.70;15.93;;;;;;;3.51;70.04;98674.00;252018;1132;114750;-70
2020/12/13 13:00:50;;;;;;;26.05;15.58;;;;;;;3.48;70.65;98673.27;251966;1132;114914;-71
2020/12/13 13:06:26;;;;;;;27.07;16.73;;;;;;;3.47;70.45;98676.81;252143;1132;114868;-70
2020/12/13 13:11:21;;;;;;;29.87;16.63;;;;;;;3.46;70.82;98678.56;252067;1132;114738;-70
2020/12/13 13:16:47;;;;;;;;;;;;;;;3.49;70.62;98685.48;251911;1132;114519;-71
2020/12/13 13:22:08;;;;;;;28.02;16.23;;;;;;;3.49;70.79;98682.86;252234;1132;102617;-71
2020/12/13 13:27:55;;;;;;;27.27;15.93;;;;;;;3.49;71.21;98691.60;251870;1132;114804;-71
2020/12/13 13:33:36;;;;;;;23.75;15.95;;;;;;;3.49;71.02;98702.12;252054;1132;114823;-72
2020/12/13 13:38:46;;;;;;;25.33;14.53;;;;;;;3.46;70.70;98706.64;251727;1132;114411;-69
2020/12/13 13:43:52;;;;;;;26.77;15.40;;;;;;;3.43;70.33;98702.38;252043;1132;115552;-69
2020/12/13 13:54:11;;;;;;;25.50;15.13;;;;;;;3.37;70.51;98718.39;252106;1132;114806;-69
2020/12/13 13:59:17;;;;;;;;;;;;;;;3.39;70.53;98728.84;252210;1131;114318;-69
2020/12/13 14:04:20;;;;;;;29.05;16.10;;;;;;;3.41;70.41;98729.66;252096;1132;102516;-66
2020/12/13 14:09:22;;;;;;;26.77;15.20;;;;;;;3.43;70.33;98726.06;252127;1132;114694;-69
2020/12/13 14:14:25;;;;;;;27.17;15.90;;;;;;;3.42;70.33;98724.32;252163;1132;114719;-69
2020/12/13 14:19:27;;;;;;;27.53;16.17;;;;;;;3.41;70.82;98725.24;252056;1132;114660;-70
2020/12/13 14:24:30;;;;;;;24.90;15.13;;;;;;;3.40;70.23;98730.58;252066;1136;114662;-70
2020/12/13 14:29:32;;;;;;;33.47;17.87;;;;;;;3.32;70.05;98731.70;252211;1131;114771;-70
2020/12/13 14:34:35;;;;;;;35.70;19.07;;;;;;;3.30;70.26;98736.17;252078;1132;114575;-71
2020/12/13 14:39:39;;;;;;;34.93;18.67;;;;;;;3.29;70.43;98749.36;252161;1132;114681;-67
2020/12/13 14:44:42;;;;;;;32.63;18.87;;;;;;;3.31;70.66;98743.14;252048;1131;114696;-69
2020/12/13 14:49:47;;;;;;;32.33;18.20;;;;;;;3.33;70.37;98758.87;252184;1132;114935;-70
2020/12/13 14:54:50;;;;;;;30.37;18.10;;;;;;;3.36;70.22;98764.00;251997;1132;114518;-70
2020/12/13 14:59:52;;;;;;;30.50;18.20;;;;;;;3.32;70.10;98772.92;251959;1132;114588;-69
2020/12/13 15:04:54;;;;;;;31.47;17.87;;;;;;;3.29;70.44;98771.29;252155;1132;114768;-71
2020/12/13 15:09:56;;;;;;;30.00;17.40;;;;;;;3.25;70.24;98774.06;251981;1132;114738;-71
2020/12/13 15:15:49;;;;;;;27.13;15.80;;;;;;;3.21;70.70;98775.09;251950;1132;114696;-70
2020/12/13 15:20:48;;;;;;;28.20;16.63;;;;;;;3.19;70.74;98784.80;251772;1132;114691;-71
2020/12/13 15:25:53;;;;;;;28.60;16.33;;;;;;;3.15;70.58;98781.42;252096;1131;114440;-71
2020/12/13 15:31:33;;;;;;;29.80;16.67;;;;;;;3.19;70.52;98782.17;252048;1132;114609;-74
2020/12/13 15:36:50;;;;;;;29.67;16.83;;;;;;;3.20;70.82;98773.39;251825;1132;114719;-74
2020/12/13 15:42:00;;;;;;;29.60;16.67;;;;;;;3.18;70.70;98786.58;252053;1132;114768;-75
2020/12/13 15:47:09;;;;;;;28.40;16.73;;;;;;;3.16;70.30;98785.80;252026;1131;114379;-75
2020/12/13 15:52:16;;;;;;;26.67;15.73;;;;;;;3.13;70.69;98792.94;252097;1132;115018;-74
2020/12/13 15:57:55;;;;;;;27.15;16.48;;;;;;;3.12;70.64;98806.97;252030;1132;114683;-76
2020/12/13 16:03:14;;;;;;;27.63;15.47;;;;;;;3.10;70.72;98808.81;251909;1132;115039;-76
2020/12/13 16:08:43;;;;;;;30.60;16.10;;;;;;;3.03;70.41;98813.43;251971;1132;115753;-75
2020/12/13 16:13:49;;;;;;;27.15;15.90;;;;;;;3.02;70.47;98814.31;252043;1131;114541;-77
2020/12/13 16:19:19;;;;;;;25.73;15.83;;;;;;;3.08;70.54;98817.59;252017;1132;114673;-74
2020/12/13 16:24:26;;;;;;;25.60;15.37;;;;;;;3.13;70.98;98816.59;252131;1132;115154;-73
2020/12/13 16:29:40;;;;;;;26.07;15.53;;;;;;;3.15;70.48;98815.61;252068;1132;114858;-74
2020/12/13 16:34:50;;;;;;;24.60;13.83;;;;;;;3.14;70.49;98823.56;251977;1132;115549;-74
2020/12/13 16:40:06;;;;;;;24.80;14.27;;;;;;;3.09;70.86;98821.08;252007;1131;115128;-74
2020/12/13 16:45:11;;;;;;;24.12;15.08;;;;;;;3.07;70.77;98833.44;252030;1132;114531;-79
2020/12/13 16:50:31;;;;;;;28.75;16.20;;;;;;;3.02;70.28;98846.75;252044;1132;115649;-77
2020/12/13 16:55:42;;;;;;;27.53;16.20;;;;;;;2.98;70.44;98836.38;252068;1132;114866;-77
2020/12/13 17:01:09;;;;;;;28.67;16.02;;;;;;;2.98;70.48;98850.37;252156;1132;115029;-77
2020/12/13 17:06:48;;;;;;;33.30;18.50;;;;;;;3.04;70.54;98844.91;252224;1132;114740;-77
2020/12/13 17:12:04;;;;;;;34.33;19.30;;;;;;;3.08;70.63;98845.66;252077;1132;114800;-78
2020/12/13 17:17:14;;;;;;;27.48;15.60;;;;;;;3.10;70.68;98848.25;252215;1132;114768;-75
2020/12/13 17:22:27;;;;;;;28.62;16.45;;;;;;;3.05;70.26;98843.98;252226;1132;116035;-78
2020/12/13 17:27:31;;;;;;;28.07;15.28;;;;;;;3.03;70.83;98845.83;252030;1132;115068;-78
2020/12/13 17:32:41;;;;;;;27.90;16.00;;;;;;;3.02;70.43;98867.78;252058;1132;114880;-78
2020/12/13 17:37:53;;;;;;;28.50;16.63;;;;;;;3.02;70.68;98867.78;252206;1132;114824;-78
2020/12/13 17:43:05;;;;;;;35.10;18.52;;;;;;;3.00;70.44;98872.22;252161;1132;114610;-78
2020/12/13 17:48:20;;;;;;;29.63;18.00;;;;;;;3.02;70.34;98864.27;252206;1133;114756;-76
2020/12/13 17:59:03;;;;;;;34.30;19.30;;;;;;;3.11;71.12;98873.62;252037;1132;114726;-77
2020/12/13 18:04:14;;;;;;;36.03;19.53;;;;;;;3.12;70.56;98877.95;252075;1132;114801;-77
2020/12/13 18:09:19;;;;;;;32.15;19.17;;;;;;;3.11;70.43;98878.88;252228;1132;114886;-77
2020/12/13 18:14:33;;;;;;;37.73;19.50;;;;;;;3.08;70.33;98888.57;252164;1132;114961;-76
2020/12/13 18:19:54;;;;;;;34.63;19.10;;;;;;;3.04;70.64;98888.74;251994;1132;114575;-76
2020/12/13 18:25:11;;;;;;;;;;;;;;;3.02;70.82;98896.69;251821;1132;115091;-77
2020/12/13 18:30:56;;;;;;;35.73;18.00;;;;;;;2.99;70.15;98909.94;251546;1134;103022;-77
2020/12/13 18:36:35;;;;;;;40.43;21.25;;;;;;;3.01;70.80;98913.35;250740;1135;115277;-76
2020/12/13 18:42:20;;;;;;;34.47;19.70;;;;;;;3.05;70.83;98911.48;250819;1135;114978;-84
2020/12/13 18:48:06;;;;;;;30.83;17.90;;;;;;;3.09;71.00;98923.60;251780;1132;115035;-79
2020/12/13 18:53:19;;;;;;;33.40;18.30;;;;;;;3.09;70.90;98928.86;251896;1132;114614;-79
2020/12/13 18:58:24;;;;;;;31.80;18.10;;;;;;;3.10;70.40;98935.00;251850;1134;115257;-79
2020/12/13 19:08:54;;;;;;;38.40;19.53;;;;;;;3.02;70.59;98941.38;251992;1132;114481;-81
2020/12/13 19:14:26;;;;;;;35.17;18.77;;;;;;;3.06;70.46;98945.62;251976;1134;114530;-79
2020/12/13 19:19:32;;;;;;;34.95;19.55;;;;;;;3.15;70.46;98951.47;251849;1115;115149;-91
2020/12/13 19:24:34;;;;;;;32.80;18.43;;;;;;;3.16;70.58;98955.80;251561;1135;114831;-89
2020/12/13 19:29:36;;;;;;;38.50;20.02;;;;;;;3.15;70.59;98967.24;251619;1135;115411;-81
2020/12/13 19:34:39;;;;;;;35.73;19.97;;;;;;;3.11;70.43;98968.27;251500;1133;114764;-87
2020/12/13 19:39:41;;;;;;;35.25;18.70;;;;;;;3.06;70.55;98971.91;251706;1134;114914;-85
2020/12/13 19:44:44;;;;;;;36.87;19.63;;;;;;;3.05;70.59;98978.05;251516;1134;114846;-81
2020/12/13 19:49:46;;;;;;;32.95;18.32;;;;;;;3.04;70.45;98976.34;251733;1134;115082;-80
2020/12/13 19:54:48;;;;;;;32.08;17.57;;;;;;;3.02;70.48;98980.81;251650;1134;115833;-86
2020/12/13 19:59:54;;;;;;;32.20;18.67;;;;;;;3.05;70.58;98988.56;251657;1134;114503;-82
2020/12/13 20:04:56;;;;;;;32.25;18.27;;;;;;;3.10;70.71;98988.44;251666;1135;115251;-82
2020/12/13 20:09:58;;;;;;;34.30;17.95;;;;;;;3.11;70.75;98994.55;251703;1135;114939;-87
2020/12/13 20:48:46;;;;;;;34.20;18.40;;;;;;;3.02;70.67;98993.95;251900;1134;114796;-86
2020/12/13 21:18:09;;;;;;;30.97;18.00;;;;;;;2.94;70.09;99003.84;248855;1134;114980;-92
2020/12/13 21:23:12;;;;;;;31.33;18.23;;;;;;;2.95;70.67;99010.80;249321;1135;114506;-90
2020/12/13 21:39:03;;;;;;;32.58;17.37;;;;;;;2.95;69.99;99023.95;250827;1134;114249;-87
2020/12/13 21:44:20;;;;;;;33.07;18.30;;;;;;;2.94;70.05;99027.48;249754;1135;115091;-87
2020/12/13 21:51:19;;;;;;;33.67;18.75;;;;;;;2.96;70.54;99022.20;251265;1135;114868;-86
2020/12/13 22:17:54;;;;;;;40.93;20.17;;;;;;;2.84;70.73;99033.94;249935;1135;114643;-86
2020/12/13 22:26:46;;;;;;;36.38;19.50;;;;;;;2.96;70.96;99035.34;251845;1134;114610;-86
2020/12/13 22:31:50;;;;;;;36.77;19.55;;;;;;;3.04;70.38;99035.95;251482;1134;114992;-85
2020/12/13 22:36:52;;;;;;;35.08;19.60;;;;;;;3.04;70.27;99031.55;251919;1135;114885;-89
2020/12/13 22:41:55;;;;;;;35.00;19.77;;;;;;;3.06;70.74;99027.12;248913;1134;114665;-90
2020/12/13 22:46:57;;;;;;;38.97;19.37;;;;;;;3.08;70.35;99029.68;249867;1135;114575;-89
2020/12/13 22:52:00;;;;;;;33.00;19.30;;;;;;;3.07;70.81;99031.45;249968;1134;114963;-86
2020/12/13 22:57:02;;;;;;;33.23;19.33;;;;;;;3.10;70.51;99034.91;248932;1134;114775;-89
2020/12/13 23:02:05;;;;;;;36.43;20.30;;;;;;;3.10;70.36;99037.54;249787;1135;114677;-89
2020/12/13 23:07:07;;;;;;;33.47;19.03;;;;;;;3.08;70.71;99037.56;250639;1135;114574;-83
2020/12/13 23:12:11;;;;;;;25.10;13.63;;;;;;;3.08;70.40;99043.69;249769;1134;114970;-83
2020/12/13 23:17:14;;;;;;;19.00;11.00;;;;;;;3.07;70.09;99052.48;251784;1133;115935;-78
2020/12/13 23:22:16;;;;;;;20.52;11.83;;;;;;;3.07;70.01;99049.86;251201;1134;116565;-84
2020/12/13 23:27:19;;;;;;;22.07;12.77;;;;;;;3.11;69.92;99053.25;250026;1135;115446;-89
2020/12/13 23:32:21;;;;;;;20.73;12.30;;;;;;;3.07;69.70;99052.48;249758;1134;115001;-88
2020/12/13 23:37:23;;;;;;;24.03;12.97;;;;;;;3.06;70.08;99056.03;251308;1134;114807;-80
2020/12/13 23:42:26;;;;;;;17.40;11.13;;;;;;;2.98;69.65;99050.14;250097;1134;114712;-89
2020/12/13 23:47:29;;;;;;;24.50;13.07;;;;;;;2.95;69.93;99047.60;247920;1134;114793;-89
2020/12/13 23:52:32;;;;;;;20.20;11.95;;;;;;;2.93;69.89;99059.09;249818;1135;114776;-89
2020/12/13 23:57:35;;;;;;;23.27;13.20;;;;;;;2.91;69.84;99051.23;248114;1134;115109;-88
